Warrington, Indiana
Current Conditions -  °F | °C
As of 6:54 PM on Monday 20 Oct 2014 (Local Time) from KMQJ Reporting Station
Scattered Clouds Scattered Clouds  
Wind Chill: 16°   Ceiling: Unl
Heat Index: 16°   Visibility: 10mi
Dew Point:   Wind: 7mph
Humidity: 42%   Direction: 300°WNW
Pressure: 29.87"   Gusts: NA
Location:  39.9098°N, 85.6325°W
Report Text: KMQJ 202254Z AUTO 30006KT 10SM SCT050 SCT060 16/03 A2987 RMK AO1
Loading
Personal Weather Stations






























Interactive Weather Map
Tropical Storm Tracking
New forecast layout! Learn more

10-Day Weather Forecast

Advertisements
Track Severe Weather on mobile